Aviation Digital Data Service (ADDS)

Output produced by METARs form (2234 UTC 30 March 2017)
found at http://www.aviationweather.gov/adds/metars/
 
RPLC 302200Z 27002KT 9999 FEW020 BKN300 23/18 Q1014 NOSIG RMK A2994
TAF RPLC 301700Z 3018/3118 12006KT 9999 FEW020 BKN300 TX34/3106Z TN26/3022Z 
     TEMPO 3018/3024 36008KT FEW020 BKN100
       
RPVD 302100Z 27006KT 9999 FEW015 SCT080 25/24 Q1011 RMK A2985
TAF RPVD 301700Z 3018/3118 32008KT 9999 SCT015 BKN080 
     TEMPO 3018/3024 04012KT 8000 -SHRA BKN015 OVC080
       
RPMD 302200Z 34004KT 9999 FEW016 BKN090 25/24 Q1012 RMK A2988
TAF RPMD 301700Z 3018/3118 36005KT 9999 FEW016 SCT090 BKN290 
     TEMPO 3018/3024 35008KT 9000 -RA SCT015 BKN090
       
RPLI 302200Z 14004KT 5000 HZ FEW019 BKN290 2/23 Q1012 NOSIG RMK A2988
TAF RPLI 301700Z 3018/3118 34008KT 9999 FEW019 
     TEMPO 3018/3024 19008KT FEW019 SCT100
       
RPVM 302200Z 02002KT 9999 -RA SCT020 BKN090 25/24 Q1013 NOSIG RMK A2991
TAF RPVM 301700Z 3018/3124 36007KT 9999 FEW020 SCT300 
     TEMPO 3018/3024 05010KT FEW020 BKN100 
     TEMPO 3100/3106 04011KT FEW020 BKN100
       
RPLB 302200Z 00000KT 9999 FEW020 SCT300 24/19 Q1012 NOSIG RMK A2988
TAF RPLB 301700Z 3018/3118 07007KT 9999 FEW020 SCT300 TX35/3106Z TN26/3022Z 
     TEMPO 3018/3024 08008KT FEW020 SCT080
       
RPLC 302200Z 27002KT 9999 FEW020 BKN300 23/18 Q1014 NOSIG RMK A2994
TAF RPLC 301700Z 3018/3118 12006KT 9999 FEW020 BKN300 TX34/3106Z TN26/3022Z 
     TEMPO 3018/3024 36008KT FEW020 BKN100
       
RPLI 302200Z 14004KT 5000 HZ FEW019 BKN290 2/23 Q1012 NOSIG RMK A2988
TAF RPLI 301700Z 3018/3118 34008KT 9999 FEW019 
     TEMPO 3018/3024 19008KT FEW019 SCT100
       
RPLL 302200Z VRB04KT 9999 FEW025 26/23 Q1013 NOSIG RMK A2991
TAF RPLL 301700Z 3018/3124 12007KT 9999 FEW025 TX34/3106Z TN26/3022Z 
     TEMPO 3018/3024 09007KT FEW023 SCT300 
     TEMPO 3100/3106 10007KT
       
RPMD 302200Z 34004KT 9999 FEW016 BKN090 25/24 Q1012 RMK A2988
TAF RPMD 301700Z 3018/3118 36005KT 9999 FEW016 SCT090 BKN290 
     TEMPO 3018/3024 35008KT 9000 -RA SCT015 BKN090
       
TAF RPMR 301700Z 3018/3118 02006KT 9999 FEW020 SCT250 
     TEMPO 3018/3024 34005KT 9000 -SHRA SCT020 BKN250
       
RPMZ 302200Z 00000KT 9999 FEW017 SCT300 25/23 Q1013 RMKA 2991
TAF RPMZ 301700Z 3018/3118 24004KT 9999 FEW018 SCT100 BKN300 
     TEMPO 3018/3024 24006KT FEW017 BKN100
       
RPVD 302100Z 27006KT 9999 FEW015 SCT080 25/24 Q1011 RMK A2985
TAF RPVD 301700Z 3018/3118 32008KT 9999 SCT015 BKN080 
     TEMPO 3018/3024 04012KT 8000 -SHRA BKN015 OVC080
       
RPVM 302200Z 02002KT 9999 -RA SCT020 BKN090 25/24 Q1013 NOSIG RMK A2991
TAF RPVM 301700Z 3018/3124 36007KT 9999 FEW020 SCT300 
     TEMPO 3018/3024 05010KT FEW020 BKN100 
     TEMPO 3100/3106 04011KT FEW020 BKN100
       
RPVP 302200Z 07010KT 9999 FEW020 SCT240 28/23 Q1012 RMK A2988
TAF RPVP 301700Z 3018/3118 09010KT 9999 FEW020 SCT250 
     TEMPO 3100/3106 12011KT FEW019 BKN240
       
RPLL 302200Z VRB04KT 9999 FEW025 26/23 Q1013 NOSIG RMK A2991
TAF RPLL 301700Z 3018/3124 12007KT 9999 FEW025 TX34/3106Z TN26/3022Z 
     TEMPO 3018/3024 09007KT FEW023 SCT300 
     TEMPO 3100/3106 10007KT
       
RPVP 302200Z 07010KT 9999 FEW020 SCT240 28/23 Q1012 RMK A2988
TAF RPVP 301700Z 3018/3118 09010KT 9999 FEW020 SCT250 
     TEMPO 3100/3106 12011KT FEW019 BKN240
       
RPLB 302200Z 00000KT 9999 FEW020 SCT300 24/19 Q1012 NOSIG RMK A2988
TAF RPLB 301700Z 3018/3118 07007KT 9999 FEW020 SCT300 TX35/3106Z TN26/3022Z 
     TEMPO 3018/3024 08008KT FEW020 SCT080
       
TAF RPMR 301700Z 3018/3118 02006KT 9999 FEW020 SCT250 
     TEMPO 3018/3024 34005KT 9000 -SHRA SCT020 BKN250
       
RPMZ 302200Z 00000KT 9999 FEW017 SCT300 25/23 Q1013 RMKA 2991
TAF RPMZ 301700Z 3018/3118 24004KT 9999 FEW018 SCT100 BKN300 
     TEMPO 3018/3024 24006KT FEW017 BKN100